Airfield :
LOGIN :

Register | Disclaimer

   EN    FR    IT 

 










Legend :    VFR   Marginal VFR   IFR   Intensive IFR   Very Intensive IFR
Visi :
Ceiling :
>= 8 km
>= 3000ft
5 to 8 km
1000 to 3000 ft
1500m to 5 km
500 to 1000 ft
800 to 1500m
200 to 500 ft
< 800m
< 200 ft
Symbols :   Thunderstorms  Fog  Heavy snow  Heavy precipitations  Wind > 20 kt
SIGMETs :     Misc.  Thunderstorms  Icing  Turbulence  Mountain Waves  Volcanic Ashes







- Airport Elevation : 31 ft
- IATA code : INV
- Download approach charts


EGPE - Inverness

CURRENT METAR :
  • 181020Z 22009KT 9999 VCSH FEW018 BKN031 17/13 Q1001

EXPIRED METARs :
  • 180950Z 21011KT 9999 FEW022 SCT035 BKN047 17/12 Q1001
  • 180920Z 22013KT 9999 FEW022 SCT034 16/12 Q1001
  • 180850Z 23014KT 9999 FEW012 BKN028 17/12 Q1001
  • 180820Z 21015KT 9999 FEW015 SCT025 16/12 Q1001
  • 180750Z 21012KT 9999 FEW020 16/12 Q1001

TAF TAF EGPE
Valid from the 18 at 09:00 until the 18 at 18:00 UTC


180758Z 1809/1818 23009KT 9999 FEW030
TEMPO 1809/1815 6000 SHRA
PROB30
TEMPO 1812/1818 24015G25KT 4000 +SHRA
ATIS : +44 1667 464 255
No reported NOTAMs for that airfield.



MET'MAP, your aeronautical weather chart ! - Copyright ORBIFLY December 2007 - Disclaimer

ORBIFLY MET'MAP TEAM :

Programming & Development : Alexandra Zaïnal
Concept & Development : Baudouin d'Aumeries
Co-Development & Prog : Marc-Olivier Méhu
Technical & hardware support : Manuel Goepfert

Contact : metmap@orbifly.com




SOURCES & CREDITS :

   NOAA